createdAt,value
2019-03-06T00:03:37.639Z,82.40
2019-03-06T00:07:43.379Z,83.00
2019-03-06T00:11:49.306Z,83.70
2019-03-06T00:15:55.026Z,83.30
2019-03-06T00:20:00.721Z,84.20
2019-03-06T00:24:08.628Z,84.40
2019-03-06T00:28:15.619Z,84.00
2019-03-06T00:32:21.396Z,84.30
2019-03-06T00:36:27.704Z,83.10
2019-03-06T00:40:51.403Z,82.20
2019-03-06T00:44:57.094Z,81.70
2019-03-06T00:49:02.882Z,83.10
2019-03-06T00:53:08.594Z,83.70
2019-03-06T00:57:14.270Z,83.10
2019-03-06T01:01:20.102Z,82.50
2019-03-06T01:05:25.900Z,83.50
2019-03-06T01:09:31.577Z,84.30
2019-03-06T01:13:37.325Z,83.30
2019-03-06T01:17:43.077Z,82.30
2019-03-06T01:21:48.762Z,81.90
2019-03-06T01:25:54.566Z,81.60
2019-03-06T01:30:01.213Z,81.30
2019-03-06T01:34:14.371Z,81.50
2019-03-06T01:38:21.682Z,81.40
2019-03-06T01:42:29.041Z,81.60
2019-03-06T01:46:34.732Z,80.60
2019-03-06T01:50:40.417Z,81.30
2019-03-06T01:54:46.119Z,80.00
2019-03-06T01:58:51.985Z,83.90
2019-03-06T02:02:57.746Z,82.60
2019-03-06T02:07:03.687Z,82.30
2019-03-06T02:11:09.796Z,80.80
2019-03-06T02:15:19.735Z,83.70
2019-03-06T02:19:25.419Z,80.70
2019-03-06T02:23:31.163Z,79.90
2019-03-06T02:27:36.978Z,80.90
2019-03-06T02:31:42.651Z,79.00
2019-03-06T02:35:48.342Z,81.90
2019-03-06T02:39:54.106Z,80.60
2019-03-06T02:43:59.825Z,80.30
2019-03-06T02:48:05.572Z,81.00
2019-03-06T02:52:11.279Z,81.10
2019-03-06T02:56:18.039Z,82.20
2019-03-06T03:00:32.961Z,81.50
2019-03-06T03:04:46.449Z,81.20
2019-03-06T03:08:52.112Z,82.00
2019-03-06T03:12:58.833Z,81.80
2019-03-06T03:17:04.755Z,80.90
2019-03-06T03:21:10.446Z,81.20
2019-03-06T03:25:16.134Z,80.90
2019-03-06T03:29:22.085Z,80.50
2019-03-06T03:33:27.781Z,81.80
2019-03-06T03:37:33.467Z,81.00
2019-03-06T03:41:40.376Z,81.80
2019-03-06T03:45:46.140Z,81.80
2019-03-06T03:49:51.812Z,81.20
2019-03-06T03:53:57.607Z,79.90
2019-03-06T03:58:03.295Z,79.40
2019-03-06T04:02:08.977Z,79.30
2019-03-06T04:06:14.650Z,79.70
2019-03-06T04:10:22.170Z,79.60
2019-03-06T04:14:27.872Z,80.80
2019-03-06T04:18:33.613Z,81.10
2019-03-06T04:22:39.850Z,81.40
2019-03-06T04:26:45.567Z,82.30
2019-03-06T04:30:52.637Z,82.30
2019-03-06T04:34:58.463Z,83.10
2019-03-06T04:39:05.014Z,83.50
2019-03-06T04:43:10.873Z,84.30
2019-03-06T04:47:16.542Z,84.10
2019-03-06T04:51:22.236Z,84.00
2019-03-06T04:55:30.933Z,83.90
2019-03-06T04:59:36.612Z,84.20
2019-03-06T05:03:42.303Z,84.40
2019-03-06T05:07:47.969Z,84.30
2019-03-06T05:11:53.655Z,84.60
2019-03-06T05:15:59.443Z,84.00
2019-03-06T05:20:07.635Z,83.20
2019-03-06T05:24:13.308Z,83.20
2019-03-06T05:28:18.967Z,82.60
2019-03-06T05:32:32.992Z,82.30
2019-03-06T05:36:54.905Z,81.20
2019-03-06T05:41:00.664Z,80.40
2019-03-06T05:45:08.968Z,80.00
2019-03-06T05:49:14.649Z,80.50
2019-03-06T05:53:20.352Z,80.80
2019-03-06T05:57:26.033Z,80.20
2019-03-06T06:01:31.726Z,78.00
2019-03-06T06:05:37.434Z,77.40
2019-03-06T06:09:43.076Z,77.10
2019-03-06T06:13:48.755Z,77.10
2019-03-06T06:17:54.461Z,77.30
2019-03-06T06:22:13.799Z,77.70
2019-03-06T06:26:19.468Z,77.80
2019-03-06T06:30:25.165Z,78.30
2019-03-06T06:34:30.856Z,78.50
2019-03-06T06:38:37.515Z,78.70
2019-03-06T06:42:43.410Z,77.90
2019-03-06T06:46:49.281Z,76.80
2019-03-06T06:51:08.423Z,75.70
2019-03-06T06:55:18.712Z,72.70
2019-03-06T06:59:38.023Z,73.10
2019-03-06T07:04:01.710Z,72.60
2019-03-06T07:08:13.346Z,71.80
2019-03-06T07:12:26.381Z,72.40
2019-03-06T07:16:42.429Z,71.40
2019-03-06T07:20:54.001Z,71.70
2019-03-06T07:25:01.382Z,68.00
2019-03-06T07:29:20.752Z,65.50
2019-03-06T07:33:28.190Z,63.30
2019-03-06T07:37:38.281Z,59.10
2019-03-06T07:42:01.814Z,57.10
2019-03-06T07:46:25.364Z,58.50
2019-03-06T07:50:48.833Z,58.10
2019-03-06T07:55:08.379Z,59.40
2019-03-06T07:59:14.060Z,57.90
2019-03-06T08:03:21.289Z,56.70
2019-03-06T08:07:26.986Z,53.80
2019-03-06T08:11:34.312Z,56.20
2019-03-06T08:15:48.736Z,56.10
2019-03-06T08:19:56.943Z,54.20
2019-03-06T08:24:17.820Z,55.00
2019-03-06T08:28:23.205Z,55.70
2019-03-06T08:32:30.079Z,55.00
2019-03-06T08:36:36.808Z,56.10
2019-03-06T08:40:42.706Z,54.00
2019-03-06T08:44:48.370Z,53.70
2019-03-06T08:49:01.238Z,53.70
2019-03-06T08:53:20.776Z,52.40
2019-03-06T08:57:41.915Z,53.30
2019-03-06T09:02:00.002Z,51.00
2019-03-06T09:06:08.611Z,46.30
2019-03-06T09:10:22.705Z,45.20
2019-03-06T09:14:36.109Z,42.80
2019-03-06T09:18:43.437Z,40.30
2019-03-06T09:23:02.923Z,38.90
2019-03-06T09:27:26.753Z,40.20
2019-03-06T09:31:35.695Z,41.40
2019-03-06T09:35:43.019Z,42.10
2019-03-06T09:39:53.087Z,42.90
2019-03-06T09:44:00.496Z,43.60
2019-03-06T09:48:08.923Z,40.30
2019-03-06T09:52:21.990Z,41.30
2019-03-06T09:56:29.322Z,40.90
2019-03-06T10:00:52.480Z,39.80
2019-03-06T10:05:03.394Z,40.30
2019-03-06T10:09:25.039Z,40.50
2019-03-06T10:13:32.367Z,41.50
2019-03-06T10:17:39.693Z,41.80
2019-03-06T10:21:45.380Z,42.60
2019-03-06T10:25:51.155Z,44.60
2019-03-06T10:29:57.009Z,45.20
2019-03-06T10:34:02.706Z,45.80
2019-03-06T10:38:14.139Z,46.20
2019-03-06T10:42:15.875Z,45.50
2019-03-06T10:46:21.579Z,44.80
2019-03-06T10:50:30.425Z,44.90
2019-03-06T10:54:37.884Z,45.60
2019-03-06T10:58:42.341Z,46.60
2019-03-06T11:03:08.410Z,46.50
2019-03-06T11:07:14.640Z,47.00
2019-03-06T11:11:20.523Z,46.60
2019-03-06T11:15:26.716Z,47.20
2019-03-06T11:19:32.481Z,46.20
2019-03-06T11:23:38.181Z,46.90
2019-03-06T11:27:43.939Z,45.50
2019-03-06T11:31:49.961Z,45.20
2019-03-06T11:35:59.276Z,45.40
2019-03-06T11:40:09.119Z,43.30
2019-03-06T11:44:14.925Z,42.80
2019-03-06T11:48:22.600Z,39.60
2019-03-06T11:52:28.773Z,36.70
2019-03-06T11:56:34.793Z,35.20
2019-03-06T12:00:44.493Z,34.90
2019-03-06T12:04:50.455Z,32.80
2019-03-06T12:08:56.391Z,32.60
2019-03-06T12:13:02.403Z,31.80
2019-03-06T12:17:08.205Z,32.40
2019-03-06T12:21:14.288Z,30.80
2019-03-06T12:25:20.124Z,30.90
2019-03-06T12:29:27.795Z,31.60
2019-03-06T12:33:33.324Z,32.00
2019-03-06T12:37:46.669Z,31.90
2019-03-06T12:41:46.552Z,32.60
2019-03-06T12:46:23.429Z,32.40
2019-03-06T12:50:30.853Z,30.90
2019-03-06T12:54:36.611Z,30.30
2019-03-06T12:58:42.339Z,30.30
2019-03-06T13:02:48.239Z,30.50
2019-03-06T13:06:54.145Z,30.80
2019-03-06T13:10:59.919Z,29.20
2019-03-06T13:15:12.366Z,28.10
2019-03-06T13:19:18.133Z,26.30
2019-03-06T13:23:23.898Z,25.20
2019-03-06T13:27:29.839Z,24.50
2019-03-06T13:31:35.673Z,26.00
2019-03-06T13:35:41.495Z,27.20
2019-03-06T13:39:47.264Z,27.80
2019-03-06T13:43:53.051Z,28.10
2019-03-06T13:47:58.871Z,27.30
2019-03-06T13:52:04.624Z,26.40
2019-03-06T13:56:11.292Z,26.50
2019-03-06T14:00:26.689Z,27.80
2019-03-06T14:04:33.354Z,28.80
2019-03-06T14:08:39.406Z,27.70
2019-03-06T14:12:45.146Z,26.70
2019-03-06T14:16:51.207Z,25.90
2019-03-06T14:20:57.008Z,26.90
2019-03-06T14:25:02.995Z,27.50
2019-03-06T14:29:08.759Z,28.00
2019-03-06T14:33:14.611Z,28.20
2019-03-06T14:37:20.308Z,28.30
2019-03-06T14:41:26.208Z,29.10
2019-03-06T14:45:32.108Z,29.30
2019-03-06T14:49:37.895Z,29.70
2019-03-06T14:53:43.657Z,29.70
2019-03-06T14:57:49.384Z,30.10
2019-03-06T15:01:55.098Z,30.80
2019-03-06T15:06:00.960Z,30.80
2019-03-06T15:10:19.148Z,30.50
2019-03-06T15:14:24.879Z,30.90
2019-03-06T15:18:30.569Z,31.20
2019-03-06T15:22:38.801Z,31.80
2019-03-06T15:26:43.955Z,31.20
2019-03-06T15:30:49.797Z,31.90
2019-03-06T15:34:55.561Z,32.20
2019-03-06T15:39:01.364Z,32.60
2019-03-06T15:43:19.277Z,33.80
2019-03-06T15:47:33.429Z,34.00
2019-03-06T15:51:34.642Z,33.70
2019-03-06T15:56:17.671Z,34.60
2019-03-06T16:00:34.936Z,34.10
2019-03-06T16:04:40.768Z,34.70
2019-03-06T16:08:46.486Z,36.00
2019-03-06T16:12:52.395Z,36.00
2019-03-06T16:16:59.023Z,35.60
2019-03-06T16:21:06.776Z,35.90
2019-03-06T16:25:18.595Z,35.90
2019-03-06T16:29:24.299Z,35.00
2019-03-06T16:40:16.942Z,35.40
2019-03-06T16:45:16.917Z,35.30
2019-03-06T16:49:25.497Z,35.30
2019-03-06T16:53:29.993Z,35.80
2019-03-06T16:57:35.835Z,35.70
2019-03-06T17:01:41.606Z,35.30
2019-03-06T17:05:49.316Z,36.00
2019-03-06T17:09:55.151Z,36.30
2019-03-06T17:14:00.916Z,36.20
2019-03-06T17:18:07.213Z,36.30
2019-03-06T17:22:12.992Z,36.00
2019-03-06T17:26:20.697Z,37.80
2019-03-06T17:30:35.105Z,38.10
2019-03-06T17:35:17.029Z,38.50
2019-03-06T17:39:22.932Z,38.90
2019-03-06T17:43:30.318Z,38.50
2019-03-06T17:47:36.090Z,38.00
2019-03-06T17:51:41.866Z,37.40
2019-03-06T17:55:47.641Z,38.60
2019-03-06T17:59:53.612Z,38.90
2019-03-06T18:04:01.053Z,40.00
2019-03-06T18:08:08.031Z,40.50
2019-03-06T18:12:13.753Z,39.70
2019-03-06T18:16:19.468Z,39.80
2019-03-06T18:20:25.168Z,39.80
2019-03-06T18:24:30.930Z,40.20
2019-03-06T18:28:36.821Z,39.80
2019-03-06T18:33:13.004Z,40.80
2019-03-06T18:37:18.762Z,41.10
2019-03-06T18:41:24.495Z,39.70
2019-03-06T18:45:30.314Z,38.20
2019-03-06T18:49:37.757Z,38.20
2019-03-06T18:53:43.553Z,38.60
2019-03-06T18:57:49.379Z,39.20
2019-03-06T19:01:55.252Z,39.30
2019-03-06T19:06:00.982Z,38.20
2019-03-06T19:10:17.850Z,37.80
2019-03-06T19:14:23.769Z,38.00
2019-03-06T19:18:29.502Z,38.10
2019-03-06T19:22:35.443Z,38.30
2019-03-06T19:26:41.147Z,38.40
2019-03-06T19:30:46.908Z,37.90
2019-03-06T19:34:52.672Z,38.20
2019-03-06T19:38:58.376Z,38.20
2019-03-06T19:43:04.230Z,38.20
2019-03-06T19:47:10.084Z,37.90
2019-03-06T19:51:16.072Z,39.40
2019-03-06T19:55:21.962Z,38.30
2019-03-06T19:59:27.764Z,38.20
2019-03-06T20:03:33.537Z,38.30
2019-03-06T20:07:39.348Z,39.30
2019-03-06T20:11:45.071Z,39.00
2019-03-06T20:15:50.821Z,37.60
2019-03-06T20:19:56.763Z,38.90
2019-03-06T20:24:02.561Z,37.90
2019-03-06T20:28:08.473Z,38.30
2019-03-06T20:32:14.167Z,39.60
2019-03-06T20:36:19.881Z,38.00
2019-03-06T20:40:25.647Z,38.50
2019-03-06T20:44:31.357Z,38.90
2019-03-06T20:48:37.028Z,37.90
2019-03-06T20:52:42.826Z,39.00
2019-03-06T20:56:50.315Z,38.70
2019-03-06T21:00:56.095Z,39.60
2019-03-06T21:10:20.602Z,40.20
2019-03-06T21:14:26.303Z,39.60
2019-03-06T21:18:31.982Z,41.10
2019-03-06T21:22:37.850Z,39.10
2019-03-06T21:26:43.556Z,38.80
2019-03-06T21:31:16.446Z,38.40
2019-03-06T21:35:22.307Z,38.70
2019-03-06T21:39:27.973Z,39.20
2019-03-06T21:43:33.773Z,40.00
2019-03-06T21:47:39.580Z,38.90
2019-03-06T21:51:46.263Z,39.00
2019-03-06T21:55:51.956Z,39.10
2019-03-06T21:59:57.649Z,38.90
2019-03-06T22:04:03.681Z,39.50
2019-03-06T22:08:09.515Z,39.70
2019-03-06T22:12:15.218Z,39.40
2019-03-06T22:16:20.927Z,39.70
2019-03-06T22:20:26.629Z,40.00
2019-03-06T22:24:32.324Z,40.00
2019-03-06T22:28:38.042Z,41.10
2019-03-06T22:32:43.731Z,41.70
2019-03-06T22:36:49.492Z,41.70
2019-03-06T22:40:55.150Z,41.20
2019-03-06T22:45:00.908Z,40.00
2019-03-06T22:49:07.774Z,40.20
2019-03-06T22:53:13.471Z,40.00
2019-03-06T22:57:19.157Z,39.90
2019-03-06T23:01:29.245Z,39.80
2019-03-06T23:05:37.152Z,40.10
2019-03-06T23:09:42.835Z,39.90
2019-03-06T23:13:48.528Z,40.20
2019-03-06T23:17:54.216Z,40.60
2019-03-06T23:21:59.940Z,40.30
2019-03-06T23:26:05.710Z,40.20
2019-03-06T23:30:14.414Z,40.10
2019-03-06T23:34:20.169Z,39.60
2019-03-06T23:38:25.905Z,39.90
2019-03-06T23:42:31.626Z,39.80
2019-03-06T23:46:37.324Z,39.90
2019-03-06T23:50:43.007Z,39.70
2019-03-06T23:54:49.776Z,39.80
2019-03-06T23:58:56.510Z,40.10
